sensor_id;sensor_type;location;lat;lon;timestamp;P1;durP1;ratioP1;P2;durP2;ratioP2
73321;SDS011;61549;37.044;22.128;2023-02-28T00:00:25;51.20;;;9.73;;
73321;SDS011;61549;37.044;22.128;2023-02-28T00:02:51;40.90;;;9.73;;
73321;SDS011;61549;37.044;22.128;2023-02-28T00:05:19;37.65;;;9.60;;
73321;SDS011;61549;37.044;22.128;2023-02-28T00:07:46;39.97;;;9.77;;
73321;SDS011;61549;37.044;22.128;2023-02-28T00:10:13;39.35;;;8.75;;
73321;SDS011;61549;37.044;22.128;2023-02-28T00:12:46;35.13;;;7.75;;
73321;SDS011;61549;37.044;22.128;2023-02-28T00:18:54;42.53;;;8.82;;
73321;SDS011;61549;37.044;22.128;2023-02-28T00:21:20;36.47;;;8.50;;
73321;SDS011;61549;37.044;22.128;2023-02-28T00:23:46;48.85;;;8.95;;
73321;SDS011;61549;37.044;22.128;2023-02-28T00:26:12;37.67;;;9.15;;
73321;SDS011;61549;37.044;22.128;2023-02-28T00:28:38;36.70;;;8.85;;
73321;SDS011;61549;37.044;22.128;2023-02-28T00:31:04;45.08;;;8.63;;
73321;SDS011;61549;37.044;22.128;2023-02-28T00:33:30;32.58;;;8.45;;
73321;SDS011;61549;37.044;22.128;2023-02-28T00:36:02;40.85;;;9.45;;
73321;SDS011;61549;37.044;22.128;2023-02-28T00:38:30;33.55;;;8.52;;
73321;SDS011;61549;37.044;22.128;2023-02-28T00:40:56;39.03;;;9.13;;
73321;SDS011;61549;37.044;22.128;2023-02-28T00:43:22;34.80;;;8.15;;
73321;SDS011;61549;37.044;22.128;2023-02-28T00:45:47;28.83;;;8.55;;
73321;SDS011;61549;37.044;22.128;2023-02-28T00:48:13;35.20;;;7.88;;
73321;SDS011;61549;37.044;22.128;2023-02-28T00:50:39;36.42;;;8.30;;
73321;SDS011;61549;37.044;22.128;2023-02-28T00:53:05;35.53;;;9.23;;
73321;SDS011;61549;37.044;22.128;2023-02-28T00:55:31;38.65;;;9.55;;
73321;SDS011;61549;37.044;22.128;2023-02-28T00:57:56;46.00;;;10.23;;
73321;SDS011;61549;37.044;22.128;2023-02-28T01:00:22;43.53;;;9.02;;
73321;SDS011;61549;37.044;22.128;2023-02-28T01:02:48;37.22;;;9.77;;
73321;SDS011;61549;37.044;22.128;2023-02-28T01:08:24;43.55;;;9.63;;
73321;SDS011;61549;37.044;22.128;2023-02-28T01:10:51;44.63;;;9.23;;
73321;SDS011;61549;37.044;22.128;2023-02-28T01:17:35;35.97;;;9.32;;
73321;SDS011;61549;37.044;22.128;2023-02-28T01:20:01;44.28;;;9.40;;
73321;SDS011;61549;37.044;22.128;2023-02-28T01:22:27;38.88;;;9.73;;
73321;SDS011;61549;37.044;22.128;2023-02-28T01:24:53;40.65;;;9.50;;
73321;SDS011;61549;37.044;22.128;2023-02-28T01:27:19;39.40;;;9.38;;
73321;SDS011;61549;37.044;22.128;2023-02-28T01:29:45;39.15;;;7.97;;
73321;SDS011;61549;37.044;22.128;2023-02-28T01:32:11;39.78;;;9.20;;
73321;SDS011;61549;37.044;22.128;2023-02-28T01:34:37;40.30;;;8.75;;
73321;SDS011;61549;37.044;22.128;2023-02-28T01:37:03;36.60;;;8.57;;
73321;SDS011;61549;37.044;22.128;2023-02-28T01:39:29;36.50;;;8.52;;
73321;SDS011;61549;37.044;22.128;2023-02-28T01:41:54;44.50;;;8.85;;
73321;SDS011;61549;37.044;22.128;2023-02-28T01:47:20;35.95;;;8.07;;
73321;SDS011;61549;37.044;22.128;2023-02-28T01:49:47;47.50;;;9.07;;
73321;SDS011;61549;37.044;22.128;2023-02-28T01:52:14;43.20;;;8.35;;
73321;SDS011;61549;37.044;22.128;2023-02-28T01:54:43;41.50;;;8.90;;
73321;SDS011;61549;37.044;22.128;2023-02-28T02:00:37;46.70;;;7.47;;
73321;SDS011;61549;37.044;22.128;2023-02-28T02:03:05;41.67;;;7.65;;
73321;SDS011;61549;37.044;22.128;2023-02-28T02:05:36;32.50;;;6.65;;
73321;SDS011;61549;37.044;22.128;2023-02-28T02:08:05;39.63;;;6.50;;
73321;SDS011;61549;37.044;22.128;2023-02-28T02:10:35;45.53;;;6.18;;
73321;SDS011;61549;37.044;22.128;2023-02-28T02:13:25;33.55;;;6.32;;
73321;SDS011;61549;37.044;22.128;2023-02-28T02:16:00;38.45;;;7.30;;
73321;SDS011;61549;37.044;22.128;2023-02-28T02:21:39;34.65;;;7.35;;
73321;SDS011;61549;37.044;22.128;2023-02-28T02:37:27;40.28;;;6.82;;
73321;SDS011;61549;37.044;22.128;2023-02-28T02:40:17;30.23;;;6.35;;
73321;SDS011;61549;37.044;22.128;2023-02-28T02:45:35;33.70;;;7.88;;
73321;SDS011;61549;37.044;22.128;2023-02-28T02:48:08;35.53;;;7.13;;
73321;SDS011;61549;37.044;22.128;2023-02-28T02:56:18;41.13;;;8.15;;
73321;SDS011;61549;37.044;22.128;2023-02-28T02:58:49;51.15;;;6.97;;
73321;SDS011;61549;37.044;22.128;2023-02-28T03:01:19;41.42;;;7.70;;
73321;SDS011;61549;37.044;22.128;2023-02-28T03:03:54;37.78;;;7.20;;
73321;SDS011;61549;37.044;22.128;2023-02-28T03:06:24;46.72;;;7.55;;
73321;SDS011;61549;37.044;22.128;2023-02-28T03:08:50;39.97;;;7.18;;
73321;SDS011;61549;37.044;22.128;2023-02-28T03:11:16;40.95;;;7.60;;
73321;SDS011;61549;37.044;22.128;2023-02-28T03:16:36;41.53;;;7.18;;
73321;SDS011;61549;37.044;22.128;2023-02-28T03:27:41;32.65;;;7.20;;
73321;SDS011;61549;37.044;22.128;2023-02-28T03:32:53;28.45;;;6.50;;
73321;SDS011;61549;37.044;22.128;2023-02-28T03:35:29;27.23;;;6.97;;
73321;SDS011;61549;37.044;22.128;2023-02-28T03:38:10;44.97;;;7.65;;
73321;SDS011;61549;37.044;22.128;2023-02-28T03:40:46;46.88;;;8.32;;
73321;SDS011;61549;37.044;22.128;2023-02-28T03:43:18;33.25;;;6.90;;
73321;SDS011;61549;37.044;22.128;2023-02-28T03:45:49;35.30;;;7.28;;
73321;SDS011;61549;37.044;22.128;2023-02-28T03:48:18;31.13;;;7.45;;
73321;SDS011;61549;37.044;22.128;2023-02-28T03:50:47;41.95;;;7.85;;
73321;SDS011;61549;37.044;22.128;2023-02-28T03:53:19;37.33;;;7.55;;
73321;SDS011;61549;37.044;22.128;2023-02-28T03:58:37;38.13;;;7.30;;
73321;SDS011;61549;37.044;22.128;2023-02-28T04:01:28;43.42;;;7.70;;
73321;SDS011;61549;37.044;22.128;2023-02-28T04:04:06;46.92;;;7.55;;
73321;SDS011;61549;37.044;22.128;2023-02-28T04:06:33;48.88;;;8.10;;
73321;SDS011;61549;37.044;22.128;2023-02-28T04:09:00;38.67;;;7.60;;
73321;SDS011;61549;37.044;22.128;2023-02-28T04:11:29;38.85;;;7.57;;
73321;SDS011;61549;37.044;22.128;2023-02-28T04:16:46;37.60;;;8.05;;
73321;SDS011;61549;37.044;22.128;2023-02-28T04:19:12;38.30;;;7.75;;
73321;SDS011;61549;37.044;22.128;2023-02-28T04:21:49;42.75;;;7.88;;
73321;SDS011;61549;37.044;22.128;2023-02-28T04:24:18;42.75;;;8.00;;
73321;SDS011;61549;37.044;22.128;2023-02-28T04:26:47;41.22;;;8.15;;
73321;SDS011;61549;37.044;22.128;2023-02-28T04:29:18;33.80;;;7.70;;
73321;SDS011;61549;37.044;22.128;2023-02-28T04:34:18;34.30;;;7.60;;
73321;SDS011;61549;37.044;22.128;2023-02-28T04:39:35;35.00;;;7.30;;
73321;SDS011;61549;37.044;22.128;2023-02-28T04:42:02;37.95;;;7.55;;
73321;SDS011;61549;37.044;22.128;2023-02-28T04:44:28;38.42;;;7.45;;
73321;SDS011;61549;37.044;22.128;2023-02-28T04:46:54;37.65;;;6.13;;
73321;SDS011;61549;37.044;22.128;2023-02-28T04:49:19;22.65;;;5.35;;
73321;SDS011;61549;37.044;22.128;2023-02-28T04:51:45;31.80;;;6.53;;
73321;SDS011;61549;37.044;22.128;2023-02-28T04:54:11;38.75;;;6.85;;
73321;SDS011;61549;37.044;22.128;2023-02-28T04:56:40;35.53;;;6.72;;
73321;SDS011;61549;37.044;22.128;2023-02-28T04:59:06;47.42;;;7.50;;
73321;SDS011;61549;37.044;22.128;2023-02-28T05:01:32;44.78;;;7.47;;
73321;SDS011;61549;37.044;22.128;2023-02-28T05:04:00;41.47;;;7.05;;
73321;SDS011;61549;37.044;22.128;2023-02-28T05:06:30;38.33;;;6.32;;
73321;SDS011;61549;37.044;22.128;2023-02-28T05:08:58;42.50;;;8.00;;
73321;SDS011;61549;37.044;22.128;2023-02-28T05:11:28;37.05;;;7.40;;
73321;SDS011;61549;37.044;22.128;2023-02-28T05:14:00;32.72;;;5.95;;
73321;SDS011;61549;37.044;22.128;2023-02-28T05:16:29;33.88;;;6.18;;
73321;SDS011;61549;37.044;22.128;2023-02-28T05:18:56;43.40;;;6.75;;
73321;SDS011;61549;37.044;22.128;2023-02-28T05:23:56;45.60;;;7.32;;
73321;SDS011;61549;37.044;22.128;2023-02-28T05:26:25;42.53;;;8.02;;
73321;SDS011;61549;37.044;22.128;2023-02-28T05:28:51;40.97;;;7.88;;
73321;SDS011;61549;37.044;22.128;2023-02-28T05:31:17;46.08;;;7.90;;
73321;SDS011;61549;37.044;22.128;2023-02-28T05:33:43;43.92;;;8.15;;
73321;SDS011;61549;37.044;22.128;2023-02-28T05:36:09;45.53;;;8.43;;
73321;SDS011;61549;37.044;22.128;2023-02-28T05:38:35;48.72;;;9.52;;
73321;SDS011;61549;37.044;22.128;2023-02-28T05:41:04;45.38;;;8.25;;
73321;SDS011;61549;37.044;22.128;2023-02-28T05:43:34;30.40;;;6.93;;
73321;SDS011;61549;37.044;22.128;2023-02-28T05:46:04;43.95;;;8.20;;
73321;SDS011;61549;37.044;22.128;2023-02-28T05:48:32;45.45;;;8.57;;
73321;SDS011;61549;37.044;22.128;2023-02-28T05:51:01;41.65;;;8.30;;
73321;SDS011;61549;37.044;22.128;2023-02-28T05:53:28;44.60;;;8.43;;
73321;SDS011;61549;37.044;22.128;2023-02-28T05:55:54;41.08;;;8.55;;
73321;SDS011;61549;37.044;22.128;2023-02-28T05:58:20;34.05;;;7.45;;
73321;SDS011;61549;37.044;22.128;2023-02-28T06:00:47;31.60;;;7.43;;
73321;SDS011;61549;37.044;22.128;2023-02-28T06:03:14;41.25;;;9.18;;
73321;SDS011;61549;37.044;22.128;2023-02-28T06:05:43;48.53;;;12.55;;
73321;SDS011;61549;37.044;22.128;2023-02-28T06:08:09;48.55;;;11.60;;
73321;SDS011;61549;37.044;22.128;2023-02-28T06:10:34;45.78;;;10.88;;
73321;SDS011;61549;37.044;22.128;2023-02-28T06:13:01;44.55;;;11.30;;
73321;SDS011;61549;37.044;22.128;2023-02-28T06:15:30;42.30;;;9.70;;
73321;SDS011;61549;37.044;22.128;2023-02-28T06:17:56;47.03;;;10.55;;
73321;SDS011;61549;37.044;22.128;2023-02-28T06:20:23;43.85;;;10.25;;
73321;SDS011;61549;37.044;22.128;2023-02-28T06:22:51;39.30;;;9.70;;
73321;SDS011;61549;37.044;22.128;2023-02-28T06:25:19;48.20;;;9.57;;
73321;SDS011;61549;37.044;22.128;2023-02-28T06:27:45;40.92;;;9.60;;
73321;SDS011;61549;37.044;22.128;2023-02-28T06:30:11;44.00;;;9.32;;
73321;SDS011;61549;37.044;22.128;2023-02-28T06:32:37;48.83;;;9.30;;
73321;SDS011;61549;37.044;22.128;2023-02-28T06:35:03;43.63;;;8.38;;
73321;SDS011;61549;37.044;22.128;2023-02-28T06:37:30;37.65;;;8.50;;
73321;SDS011;61549;37.044;22.128;2023-02-28T06:39:57;48.13;;;8.88;;
73321;SDS011;61549;37.044;22.128;2023-02-28T06:42:23;42.70;;;9.23;;
73321;SDS011;61549;37.044;22.128;2023-02-28T06:44:56;44.58;;;9.05;;
73321;SDS011;61549;37.044;22.128;2023-02-28T06:47:23;36.97;;;9.10;;
73321;SDS011;61549;37.044;22.128;2023-02-28T06:49:49;40.83;;;9.98;;
73321;SDS011;61549;37.044;22.128;2023-02-28T06:52:15;40.50;;;10.63;;
73321;SDS011;61549;37.044;22.128;2023-02-28T06:57:17;50.80;;;16.70;;
73321;SDS011;61549;37.044;22.128;2023-02-28T06:59:43;49.50;;;14.88;;
73321;SDS011;61549;37.044;22.128;2023-02-28T07:02:08;48.65;;;10.50;;
73321;SDS011;61549;37.044;22.128;2023-02-28T07:04:34;42.53;;;10.60;;
73321;SDS011;61549;37.044;22.128;2023-02-28T07:07:00;39.55;;;9.23;;
73321;SDS011;61549;37.044;22.128;2023-02-28T07:09:26;48.38;;;9.10;;
73321;SDS011;61549;37.044;22.128;2023-02-28T07:14:25;46.88;;;8.52;;
73321;SDS011;61549;37.044;22.128;2023-02-28T07:16:51;35.00;;;7.45;;
73321;SDS011;61549;37.044;22.128;2023-02-28T07:19:17;35.50;;;9.82;;
73321;SDS011;61549;37.044;22.128;2023-02-28T07:21:43;46.92;;;9.95;;
73321;SDS011;61549;37.044;22.128;2023-02-28T07:24:09;43.13;;;10.20;;
73321;SDS011;61549;37.044;22.128;2023-02-28T07:26:35;40.10;;;9.93;;
73321;SDS011;61549;37.044;22.128;2023-02-28T07:29:01;45.75;;;10.02;;
73321;SDS011;61549;37.044;22.128;2023-02-28T07:33:58;56.35;;;13.50;;
73321;SDS011;61549;37.044;22.128;2023-02-28T07:36:24;52.97;;;14.40;;
73321;SDS011;61549;37.044;22.128;2023-02-28T07:38:50;44.22;;;13.23;;
73321;SDS011;61549;37.044;22.128;2023-02-28T07:41:16;49.97;;;13.18;;
73321;SDS011;61549;37.044;22.128;2023-02-28T07:43:43;45.78;;;12.23;;
73321;SDS011;61549;37.044;22.128;2023-02-28T07:46:10;45.80;;;12.95;;
73321;SDS011;61549;37.044;22.128;2023-02-28T07:48:37;55.30;;;12.45;;
73321;SDS011;61549;37.044;22.128;2023-02-28T07:51:03;49.67;;;12.57;;
73321;SDS011;61549;37.044;22.128;2023-02-28T07:53:29;51.92;;;15.60;;
73321;SDS011;61549;37.044;22.128;2023-02-28T07:55:56;62.83;;;16.77;;
73321;SDS011;61549;37.044;22.128;2023-02-28T07:58:23;53.70;;;16.75;;
73321;SDS011;61549;37.044;22.128;2023-02-28T08:00:49;59.70;;;15.90;;
73321;SDS011;61549;37.044;22.128;2023-02-28T08:03:15;53.90;;;15.38;;
73321;SDS011;61549;37.044;22.128;2023-02-28T08:05:45;50.33;;;14.05;;
73321;SDS011;61549;37.044;22.128;2023-02-28T08:08:12;59.03;;;15.20;;
73321;SDS011;61549;37.044;22.128;2023-02-28T08:10:39;37.38;;;13.23;;
73321;SDS011;61549;37.044;22.128;2023-02-28T08:13:05;58.00;;;15.60;;
73321;SDS011;61549;37.044;22.128;2023-02-28T08:15:31;53.17;;;15.48;;
73321;SDS011;61549;37.044;22.128;2023-02-28T08:17:57;47.90;;;13.65;;
73321;SDS011;61549;37.044;22.128;2023-02-28T08:20:24;50.67;;;13.45;;
73321;SDS011;61549;37.044;22.128;2023-02-28T08:22:50;63.85;;;19.38;;
73321;SDS011;61549;37.044;22.128;2023-02-28T08:25:17;55.08;;;18.95;;
73321;SDS011;61549;37.044;22.128;2023-02-28T08:27:43;51.72;;;18.35;;
73321;SDS011;61549;37.044;22.128;2023-02-28T08:30:13;49.22;;;15.75;;
73321;SDS011;61549;37.044;22.128;2023-02-28T08:32:40;62.17;;;15.65;;
73321;SDS011;61549;37.044;22.128;2023-02-28T08:37:36;50.80;;;14.88;;
73321;SDS011;61549;37.044;22.128;2023-02-28T08:40:02;52.40;;;14.90;;
73321;SDS011;61549;37.044;22.128;2023-02-28T08:42:29;43.47;;;12.43;;
73321;SDS011;61549;37.044;22.128;2023-02-28T08:44:56;50.15;;;15.18;;
73321;SDS011;61549;37.044;22.128;2023-02-28T08:47:21;53.60;;;16.00;;
73321;SDS011;61549;37.044;22.128;2023-02-28T08:49:48;50.08;;;16.25;;
73321;SDS011;61549;37.044;22.128;2023-02-28T08:52:14;62.65;;;16.42;;
73321;SDS011;61549;37.044;22.128;2023-02-28T08:54:40;50.80;;;16.83;;
73321;SDS011;61549;37.044;22.128;2023-02-28T08:57:07;50.55;;;15.85;;
73321;SDS011;61549;37.044;22.128;2023-02-28T08:59:33;45.60;;;15.15;;
73321;SDS011;61549;37.044;22.128;2023-02-28T09:01:59;53.97;;;15.63;;
73321;SDS011;61549;37.044;22.128;2023-02-28T09:04:25;48.13;;;15.70;;
73321;SDS011;61549;37.044;22.128;2023-02-28T09:09:26;38.15;;;14.73;;
73321;SDS011;61549;37.044;22.128;2023-02-28T09:11:53;59.20;;;16.27;;
73321;SDS011;61549;37.044;22.128;2023-02-28T09:14:22;54.72;;;17.08;;
73321;SDS011;61549;37.044;22.128;2023-02-28T09:16:48;63.72;;;17.02;;
73321;SDS011;61549;37.044;22.128;2023-02-28T09:19:15;66.65;;;17.20;;
73321;SDS011;61549;37.044;22.128;2023-02-28T09:21:41;49.17;;;15.45;;
73321;SDS011;61549;37.044;22.128;2023-02-28T09:24:07;44.42;;;14.93;;
73321;SDS011;61549;37.044;22.128;2023-02-28T09:26:33;49.22;;;14.63;;
73321;SDS011;61549;37.044;22.128;2023-02-28T09:29:00;54.08;;;15.23;;
73321;SDS011;61549;37.044;22.128;2023-02-28T09:31:27;58.17;;;14.80;;
73321;SDS011;61549;37.044;22.128;2023-02-28T09:33:56;60.67;;;16.98;;
73321;SDS011;61549;37.044;22.128;2023-02-28T09:36:24;47.25;;;16.98;;
73321;SDS011;61549;37.044;22.128;2023-02-28T09:38:51;47.00;;;17.45;;
73321;SDS011;61549;37.044;22.128;2023-02-28T09:41:22;61.10;;;18.05;;
73321;SDS011;61549;37.044;22.128;2023-02-28T09:43:52;64.78;;;22.00;;
73321;SDS011;61549;37.044;22.128;2023-02-28T09:46:34;61.83;;;19.30;;
73321;SDS011;61549;37.044;22.128;2023-02-28T09:49:10;52.70;;;19.33;;
73321;SDS011;61549;37.044;22.128;2023-02-28T09:54:15;61.13;;;19.58;;
73321;SDS011;61549;37.044;22.128;2023-02-28T09:56:44;45.88;;;17.92;;
73321;SDS011;61549;37.044;22.128;2023-02-28T10:02:24;49.45;;;18.67;;
73321;SDS011;61549;37.044;22.128;2023-02-28T10:05:21;53.47;;;20.10;;
73321;SDS011;61549;37.044;22.128;2023-02-28T10:08:11;61.05;;;19.70;;
73321;SDS011;61549;37.044;22.128;2023-02-28T10:10:44;48.92;;;19.27;;
73321;SDS011;61549;37.044;22.128;2023-02-28T10:13:17;59.17;;;22.27;;
73321;SDS011;61549;37.044;22.128;2023-02-28T10:16:08;64.28;;;23.38;;
73321;SDS011;61549;37.044;22.128;2023-02-28T10:18:53;63.23;;;27.33;;
73321;SDS011;61549;37.044;22.128;2023-02-28T10:21:42;59.45;;;27.77;;
73321;SDS011;61549;37.044;22.128;2023-02-28T10:24:30;61.13;;;29.45;;
73321;SDS011;61549;37.044;22.128;2023-02-28T10:27:06;65.20;;;31.75;;
73321;SDS011;61549;37.044;22.128;2023-02-28T10:29:50;53.40;;;29.70;;
73321;SDS011;61549;37.044;22.128;2023-02-28T10:32:19;52.90;;;28.15;;
73321;SDS011;61549;37.044;22.128;2023-02-28T10:34:52;62.58;;;30.95;;
73321;SDS011;61549;37.044;22.128;2023-02-28T10:37:37;54.78;;;29.75;;
73321;SDS011;61549;37.044;22.128;2023-02-28T10:40:05;63.90;;;29.55;;
73321;SDS011;61549;37.044;22.128;2023-02-28T10:42:32;64.60;;;27.58;;
73321;SDS011;61549;37.044;22.128;2023-02-28T10:45:16;62.88;;;26.80;;
73321;SDS011;61549;37.044;22.128;2023-02-28T10:47:51;86.00;;;33.28;;
73321;SDS011;61549;37.044;22.128;2023-02-28T10:51:02;75.55;;;32.15;;
73321;SDS011;61549;37.044;22.128;2023-02-28T11:01:34;115.15;;;48.50;;
73321;SDS011;61549;37.044;22.128;2023-02-28T11:07:05;95.47;;;43.22;;
73321;SDS011;61549;37.044;22.128;2023-02-28T11:09:53;102.35;;;52.75;;
73321;SDS011;61549;37.044;22.128;2023-02-28T11:12:35;72.65;;;36.78;;
73321;SDS011;61549;37.044;22.128;2023-02-28T11:15:05;74.72;;;36.45;;
73321;SDS011;61549;37.044;22.128;2023-02-28T11:17:53;63.08;;;29.98;;
73321;SDS011;61549;37.044;22.128;2023-02-28T11:20:51;63.33;;;28.83;;
73321;SDS011;61549;37.044;22.128;2023-02-28T11:23:19;70.57;;;29.20;;
73321;SDS011;61549;37.044;22.128;2023-02-28T11:25:52;57.28;;;26.67;;
73321;SDS011;61549;37.044;22.128;2023-02-28T11:28:43;68.97;;;27.38;;
73321;SDS011;61549;37.044;22.128;2023-02-28T11:33:40;56.08;;;25.92;;
73321;SDS011;61549;37.044;22.128;2023-02-28T11:36:14;56.63;;;23.35;;
73321;SDS011;61549;37.044;22.128;2023-02-28T11:38:44;64.03;;;23.98;;
73321;SDS011;61549;37.044;22.128;2023-02-28T11:46:50;60.42;;;21.45;;
73321;SDS011;61549;37.044;22.128;2023-02-28T11:55:00;43.30;;;19.20;;
73321;SDS011;61549;37.044;22.128;2023-02-28T12:09:35;46.65;;;18.73;;
73321;SDS011;61549;37.044;22.128;2023-02-28T12:14:52;45.88;;;20.90;;
73321;SDS011;61549;37.044;22.128;2023-02-28T12:17:42;45.22;;;17.65;;
73321;SDS011;61549;37.044;22.128;2023-02-28T12:23:20;58.63;;;20.23;;
73321;SDS011;61549;37.044;22.128;2023-02-28T12:31:36;46.15;;;17.92;;
73321;SDS011;61549;37.044;22.128;2023-02-28T12:34:09;51.00;;;17.90;;
73321;SDS011;61549;37.044;22.128;2023-02-28T12:36:43;41.95;;;16.63;;
73321;SDS011;61549;37.044;22.128;2023-02-28T12:39:26;36.70;;;15.93;;
73321;SDS011;61549;37.044;22.128;2023-02-28T12:42:13;34.15;;;15.45;;
73321;SDS011;61549;37.044;22.128;2023-02-28T12:44:49;35.28;;;14.30;;
73321;SDS011;61549;37.044;22.128;2023-02-28T12:47:38;41.22;;;15.60;;
73321;SDS011;61549;37.044;22.128;2023-02-28T12:50:09;37.58;;;14.52;;
73321;SDS011;61549;37.044;22.128;2023-02-28T12:52:41;46.50;;;15.50;;
73321;SDS011;61549;37.044;22.128;2023-02-28T12:55:15;35.75;;;14.30;;
73321;SDS011;61549;37.044;22.128;2023-02-28T13:01:04;37.75;;;14.45;;
73321;SDS011;61549;37.044;22.128;2023-02-28T13:09:35;37.70;;;15.48;;
73321;SDS011;61549;37.044;22.128;2023-02-28T13:12:12;34.90;;;16.30;;
73321;SDS011;61549;37.044;22.128;2023-02-28T13:14:39;40.58;;;15.55;;
73321;SDS011;61549;37.044;22.128;2023-02-28T13:19:35;30.95;;;14.23;;
73321;SDS011;61549;37.044;22.128;2023-02-28T13:22:04;25.83;;;10.90;;
73321;SDS011;61549;37.044;22.128;2023-02-28T13:29:42;27.98;;;10.23;;
73321;SDS011;61549;37.044;22.128;2023-02-28T13:34:36;21.33;;;8.07;;
73321;SDS011;61549;37.044;22.128;2023-02-28T13:37:47;20.58;;;7.90;;
73321;SDS011;61549;37.044;22.128;2023-02-28T13:39:55;24.63;;;7.75;;
73321;SDS011;61549;37.044;22.128;2023-02-28T13:42:48;22.30;;;8.10;;
73321;SDS011;61549;37.044;22.128;2023-02-28T13:45:28;22.13;;;8.38;;
73321;SDS011;61549;37.044;22.128;2023-02-28T13:48:38;29.90;;;9.88;;
73321;SDS011;61549;37.044;22.128;2023-02-28T13:51:27;27.30;;;10.73;;
73321;SDS011;61549;37.044;22.128;2023-02-28T13:57:19;27.15;;;10.93;;
73321;SDS011;61549;37.044;22.128;2023-02-28T14:00:16;39.67;;;15.20;;
73321;SDS011;61549;37.044;22.128;2023-02-28T14:05:32;22.40;;;8.45;;
73321;SDS011;61549;37.044;22.128;2023-02-28T14:08:43;20.27;;;8.90;;
73321;SDS011;61549;37.044;22.128;2023-02-28T14:10:51;21.83;;;8.30;;
73321;SDS011;61549;37.044;22.128;2023-02-28T14:16:04;21.85;;;8.30;;
73321;SDS011;61549;37.044;22.128;2023-02-28T14:18:32;18.20;;;7.82;;
73321;SDS011;61549;37.044;22.128;2023-02-28T14:21:09;16.20;;;7.22;;
73321;SDS011;61549;37.044;22.128;2023-02-28T14:31:48;15.30;;;6.97;;
73321;SDS011;61549;37.044;22.128;2023-02-28T14:37:16;15.82;;;7.35;;
73321;SDS011;61549;37.044;22.128;2023-02-28T14:39:48;14.77;;;6.65;;
73321;SDS011;61549;37.044;22.128;2023-02-28T14:44:59;17.00;;;6.97;;
73321;SDS011;61549;37.044;22.128;2023-02-28T14:47:27;13.30;;;6.47;;
73321;SDS011;61549;37.044;22.128;2023-02-28T14:49:56;17.38;;;6.47;;
73321;SDS011;61549;37.044;22.128;2023-02-28T14:52:24;16.13;;;6.80;;
73321;SDS011;61549;37.044;22.128;2023-02-28T14:55:01;15.75;;;6.50;;
73321;SDS011;61549;37.044;22.128;2023-02-28T14:57:31;16.05;;;6.55;;
73321;SDS011;61549;37.044;22.128;2023-02-28T15:00:13;16.05;;;7.35;;
73321;SDS011;61549;37.044;22.128;2023-02-28T15:02:42;16.00;;;7.55;;
73321;SDS011;61549;37.044;22.128;2023-02-28T15:07:37;21.95;;;6.97;;
73321;SDS011;61549;37.044;22.128;2023-02-28T15:13:04;14.80;;;7.63;;
73321;SDS011;61549;37.044;22.128;2023-02-28T15:18:24;15.73;;;7.20;;
73321;SDS011;61549;37.044;22.128;2023-02-28T15:20:51;17.75;;;7.60;;
73321;SDS011;61549;37.044;22.128;2023-02-28T15:23:18;15.13;;;7.53;;
73321;SDS011;61549;37.044;22.128;2023-02-28T15:25:46;17.55;;;7.43;;
73321;SDS011;61549;37.044;22.128;2023-02-28T15:28:15;15.02;;;7.47;;
73321;SDS011;61549;37.044;22.128;2023-02-28T15:30:51;18.30;;;7.75;;
73321;SDS011;61549;37.044;22.128;2023-02-28T15:33:21;15.52;;;7.22;;
73321;SDS011;61549;37.044;22.128;2023-02-28T15:36:11;16.00;;;7.20;;
73321;SDS011;61549;37.044;22.128;2023-02-28T15:38:44;18.63;;;7.40;;
73321;SDS011;61549;37.044;22.128;2023-02-28T15:41:22;18.55;;;7.63;;
73321;SDS011;61549;37.044;22.128;2023-02-28T15:43:49;13.45;;;7.63;;
73321;SDS011;61549;37.044;22.128;2023-02-28T15:46:35;18.08;;;8.02;;
73321;SDS011;61549;37.044;22.128;2023-02-28T15:49:02;15.00;;;7.65;;
73321;SDS011;61549;37.044;22.128;2023-02-28T15:51:37;17.60;;;7.88;;
73321;SDS011;61549;37.044;22.128;2023-02-28T15:54:07;22.65;;;8.63;;
73321;SDS011;61549;37.044;22.128;2023-02-28T15:56:43;16.45;;;7.70;;
73321;SDS011;61549;37.044;22.128;2023-02-28T15:59:27;23.60;;;9.10;;
73321;SDS011;61549;37.044;22.128;2023-02-28T16:04:56;20.00;;;8.75;;
73321;SDS011;61549;37.044;22.128;2023-02-28T16:07:25;22.30;;;9.43;;
73321;SDS011;61549;37.044;22.128;2023-02-28T16:09:52;20.88;;;8.98;;
73321;SDS011;61549;37.044;22.128;2023-02-28T16:12:18;23.05;;;9.23;;
73321;SDS011;61549;37.044;22.128;2023-02-28T16:14:51;18.63;;;9.10;;
73321;SDS011;61549;37.044;22.128;2023-02-28T16:17:22;17.10;;;9.82;;
73321;SDS011;61549;37.044;22.128;2023-02-28T16:22:19;17.23;;;9.98;;
73321;SDS011;61549;37.044;22.128;2023-02-28T16:24:45;22.77;;;10.15;;
73321;SDS011;61549;37.044;22.128;2023-02-28T16:27:15;22.17;;;9.93;;
73321;SDS011;61549;37.044;22.128;2023-02-28T16:30:00;19.30;;;9.18;;
73321;SDS011;61549;37.044;22.128;2023-02-28T16:32:27;19.95;;;10.13;;
73321;SDS011;61549;37.044;22.128;2023-02-28T16:37:22;19.73;;;9.95;;
73321;SDS011;61549;37.044;22.128;2023-02-28T16:39:48;18.23;;;9.65;;
73321;SDS011;61549;37.044;22.128;2023-02-28T16:42:16;21.50;;;10.13;;
73321;SDS011;61549;37.044;22.128;2023-02-28T16:44:47;25.00;;;10.07;;
73321;SDS011;61549;37.044;22.128;2023-02-28T16:47:13;22.02;;;10.73;;
73321;SDS011;61549;37.044;22.128;2023-02-28T16:49:39;21.70;;;11.15;;
73321;SDS011;61549;37.044;22.128;2023-02-28T16:52:07;21.00;;;10.93;;
73321;SDS011;61549;37.044;22.128;2023-02-28T16:54:33;23.30;;;11.40;;
73321;SDS011;61549;37.044;22.128;2023-02-28T16:56:59;27.38;;;12.75;;
73321;SDS011;61549;37.044;22.128;2023-02-28T16:59:25;23.67;;;14.40;;
73321;SDS011;61549;37.044;22.128;2023-02-28T17:01:52;24.40;;;12.70;;
73321;SDS011;61549;37.044;22.128;2023-02-28T17:04:19;20.92;;;10.80;;
73321;SDS011;61549;37.044;22.128;2023-02-28T17:06:45;24.92;;;10.65;;
73321;SDS011;61549;37.044;22.128;2023-02-28T17:09:16;22.83;;;10.65;;
73321;SDS011;61549;37.044;22.128;2023-02-28T17:11:45;22.52;;;10.05;;
73321;SDS011;61549;37.044;22.128;2023-02-28T17:14:11;16.83;;;9.70;;
73321;SDS011;61549;37.044;22.128;2023-02-28T17:16:37;17.30;;;9.70;;
73321;SDS011;61549;37.044;22.128;2023-02-28T17:19:10;21.00;;;10.38;;
73321;SDS011;61549;37.044;22.128;2023-02-28T17:21:38;19.83;;;9.60;;
73321;SDS011;61549;37.044;22.128;2023-02-28T17:24:06;17.02;;;8.48;;
73321;SDS011;61549;37.044;22.128;2023-02-28T17:26:32;15.63;;;8.38;;
73321;SDS011;61549;37.044;22.128;2023-02-28T17:28:58;16.92;;;7.70;;
73321;SDS011;61549;37.044;22.128;2023-02-28T17:31:25;17.60;;;7.60;;
73321;SDS011;61549;37.044;22.128;2023-02-28T17:33:52;17.33;;;7.80;;
73321;SDS011;61549;37.044;22.128;2023-02-28T17:36:23;15.13;;;8.20;;
73321;SDS011;61549;37.044;22.128;2023-02-28T17:38:51;22.20;;;8.50;;
73321;SDS011;61549;37.044;22.128;2023-02-28T17:41:19;18.30;;;8.07;;
73321;SDS011;61549;37.044;22.128;2023-02-28T17:43:45;17.48;;;8.07;;
73321;SDS011;61549;37.044;22.128;2023-02-28T17:46:14;15.38;;;7.85;;
73321;SDS011;61549;37.044;22.128;2023-02-28T17:48:45;19.48;;;8.23;;